Althea — 9HAQ7 — position and weather

sailwx.info

Track history (hours):
 
Tides and Currents Weather Stations Pressure Air Temp Water Temp Dewpoint Dewpoint Depression Visibility Wind Speed Wind Dir Waves Ship Positions

Althea

Last reported at 2015-Jun-11 18:07 UTC. Time now 2015-Jul-06 19:58 UTC.
Position S 25°50' W 042°45'.
Warning: this ship's position is 25 days out of date.

Length 170 m; draft 6.2 m.

Type: Cargo ship. MMSI: 215047000.

Date/timePositionNaut miles runAvg speedWind from/ knotsBaromVisibWave heightAir tempDewpointWater temp
2015-Jun-11 18:07S 25°50' W 042°45'713.0
2015-Jun-11 17:33S 25°45' W 042°39'4213.2
2015-Jun-11 14:22S 25°15' W 042°06'1113.5
2015-Jun-11 13:33S 25°07' W 041°58'1413.5
2015-Jun-11 12:33S 24°58' W 041°47'2713.4
2015-Jun-11 10:33S 24°39' W 041°27'1513.4
2015-Jun-11 09:25S 24°28' W 041°15'1213.5
2015-Jun-11 08:33S 24°19' W 041°06'1713.3
2015-Jun-11 07:16S 24°08' W 040°53'  
Track history (hours):
 
Tides and Currents Weather Stations Pressure Air Temp Water Temp Dewpoint Dewpoint Depression Visibility Wind Speed Wind Dir Waves Ship Positions

Althea

Last reported at 2015-Jun-11 18:07 UTC. Time now 2015-Jul-06 19:58 UTC.
Position S 25°50' W 042°45'.
Warning: this ship's position is 25 days out of date.

Length 170 m; draft 6.2 m.

Type: Cargo ship. MMSI: 215047000.

Date/timePositionNaut miles runAvg speedWind from/ knotsBaromVisibWave heightAir tempDewpointWater temp
2015-Jun-11 18:07S 25°50' W 042°45'713.0
2015-Jun-11 17:33S 25°45' W 042°39'4213.2
2015-Jun-11 14:22S 25°15' W 042°06'1113.5
2015-Jun-11 13:33S 25°07' W 041°58'1413.5
2015-Jun-11 12:33S 24°58' W 041°47'2713.4
2015-Jun-11 10:33S 24°39' W 041°27'1513.4
2015-Jun-11 09:25S 24°28' W 041°15'1213.5
2015-Jun-11 08:33S 24°19' W 041°06'1713.3
2015-Jun-11 07:16S 24°08' W 040°53'  

Dump ship's entire track history